Ada, Oklahoma
Current Conditions -  °F | °C
As of 6:35 PM on Saturday 25 Oct 2014 (Local Time) from KADH Reporting Station
Clear Clear  
Wind Chill: 81°   Ceiling: Unl
Heat Index: 81°   Visibility: 10mi
Dew Point: 61°   Wind: 6mph
Humidity: 51%   Direction: 210°SSW
Pressure: 30.03"   Gusts: NA
Location:  34.78°N, 96.68°W
Report Text: KADH 252335Z AUTO 21005KT 10SM CLR 27/16 A3003 RMK AO2
Loading
Personal Weather Stations






























Interactive Weather Map New forecast layout! Learn more

10-Day Weather Forecast

Advertisements
Track Severe Weather on mobile